Clam Gulch, Alaska
Current Conditions -  °F | °C
As of 7:16 PM on Wednesday 28 Jan 2015 (Local Time) from PASX Reporting Station
Clear Clear  
Wind Chill: -2°   Ceiling: Unl
Heat Index:   Visibility: 10mi
Dew Point:   Wind: 5mph
Humidity: 79%   Direction: 80°E
Pressure: 29.98"   Gusts: NA
Location:  60.25°N, 151.38°W
Report Text: PASX 290416Z AUTO 08004KT 10SM CLR M14/M17 A2998 RMK AO1
Loading
Personal Weather Stations






























Interactive Weather Map New forecast layout! Learn more

10-Day Weather Forecast

Advertisements
Track Severe Weather on mobile